createdAt,value
2023-03-21T00:00:59.344Z,52.80
2023-03-21T00:03:28.683Z,55.90
2023-03-21T00:05:58.059Z,57.50
2023-03-21T00:08:27.002Z,53.50
2023-03-21T00:10:58.273Z,48.80
2023-03-21T00:13:48.177Z,43.90
2023-03-21T00:16:21.153Z,42.20
2023-03-21T00:19:14.018Z,38.60
2023-03-21T00:22:03.641Z,46.50
2023-03-21T00:24:35.100Z,42.20
2023-03-21T00:27:29.727Z,39.20
2023-03-21T00:29:51.985Z,35.00
2023-03-21T00:32:22.427Z,41.90
2023-03-21T00:35:38.314Z,42.30
2023-03-21T00:37:40.366Z,39.50
2023-03-21T00:40:25.470Z,50.00
2023-03-21T00:42:57.085Z,45.00
2023-03-21T00:45:26.998Z,42.80
2023-03-21T00:47:55.814Z,45.80
2023-03-21T00:50:23.189Z,55.20
2023-03-21T00:52:50.083Z,45.20
2023-03-21T00:55:18.968Z,54.60
2023-03-21T00:57:56.269Z,54.90
2023-03-21T01:00:59.307Z,47.00
2023-03-21T01:03:29.032Z,58.20
2023-03-21T01:06:08.107Z,64.00
2023-03-21T01:08:52.364Z,77.20
2023-03-21T01:11:24.406Z,52.10
2023-03-21T01:13:57.995Z,42.60
2023-03-21T01:16:45.638Z,46.80
2023-03-21T01:19:25.491Z,50.10
2023-03-21T01:21:56.072Z,57.10
2023-03-21T01:24:29.375Z,46.70
2023-03-21T01:26:57.810Z,45.70
2023-03-21T01:29:27.216Z,43.60
2023-03-21T01:31:56.165Z,49.20
2023-03-21T01:35:50.356Z,37.20
2023-03-21T01:38:46.712Z,42.70
2023-03-21T01:41:20.189Z,43.50
2023-03-21T01:43:49.830Z,42.30
2023-03-21T01:46:54.037Z,50.20
2023-03-21T01:49:53.129Z,41.20
2023-03-21T01:52:39.725Z,64.20
2023-03-21T01:55:28.925Z,48.00
2023-03-21T01:58:41.365Z,46.10
2023-03-21T02:01:34.256Z,43.10
2023-03-21T02:04:03.452Z,43.70
2023-03-21T02:07:00.438Z,40.10
2023-03-21T02:09:36.404Z,45.70
2023-03-21T02:12:12.774Z,46.60
2023-03-21T02:14:42.186Z,54.30
2023-03-21T02:18:00.194Z,51.50
2023-03-21T02:21:52.185Z,39.90
2023-03-21T02:25:16.298Z,37.90
2023-03-21T02:28:23.551Z,47.80
2023-03-21T02:31:12.261Z,47.30
2023-03-21T02:34:12.741Z,65.50
2023-03-21T02:36:48.769Z,46.80
2023-03-21T02:39:33.606Z,55.20
2023-03-21T02:51:34.212Z,42.40
2023-03-21T02:56:53.091Z,50.10
2023-03-21T02:59:25.991Z,53.90
2023-03-21T03:01:58.750Z,51.40
2023-03-21T03:04:28.530Z,49.40
2023-03-21T03:07:46.903Z,52.00
2023-03-21T03:10:40.113Z,50.00
2023-03-21T03:59:10.759Z,47.40
2023-03-21T04:02:04.933Z,46.30
2023-03-21T04:04:34.590Z,55.00
2023-03-21T04:07:07.048Z,55.50
2023-03-21T04:09:44.713Z,56.90
2023-03-21T04:12:33.764Z,54.10
2023-03-21T04:15:21.594Z,53.50
2023-03-21T04:17:53.569Z,58.80
2023-03-21T04:20:34.183Z,57.10
2023-03-21T04:23:04.244Z,67.90
2023-03-21T04:25:44.591Z,51.40
2023-03-21T04:28:16.548Z,53.40
2023-03-21T04:31:22.606Z,46.70
2023-03-21T04:33:57.291Z,47.50
2023-03-21T04:36:27.114Z,44.60
2023-03-21T04:39:01.103Z,73.40
2023-03-21T04:41:29.483Z,53.90
2023-03-21T04:44:18.170Z,50.10
2023-03-21T04:46:47.750Z,53.40
2023-03-21T04:49:18.550Z,53.30
2023-03-21T04:51:49.197Z,68.60
2023-03-21T04:55:01.093Z,69.20
2023-03-21T04:57:29.846Z,60.90
2023-03-21T04:59:59.385Z,52.50
2023-03-21T05:02:33.280Z,49.10
2023-03-21T05:05:12.568Z,61.40
2023-03-21T05:07:42.422Z,47.50
2023-03-21T05:10:12.577Z,50.00
2023-03-21T05:12:43.778Z,48.30
2023-03-21T05:15:13.690Z,46.20
2023-03-21T05:17:42.404Z,53.20
2023-03-21T05:20:11.682Z,56.60
2023-03-21T05:22:42.437Z,58.70
2023-03-21T05:25:13.743Z,58.60
2023-03-21T05:27:57.899Z,55.00
2023-03-21T05:30:29.617Z,61.00
2023-03-21T05:33:00.693Z,54.30
2023-03-21T05:35:51.617Z,55.40
2023-03-21T05:38:21.331Z,55.30
2023-03-21T05:40:51.434Z,60.80
2023-03-21T05:43:22.358Z,51.20
2023-03-21T05:45:52.690Z,44.90
2023-03-21T05:48:21.492Z,58.20
2023-03-21T05:51:01.861Z,49.40
2023-03-21T05:56:59.677Z,56.90
2023-03-21T05:59:53.678Z,50.00
2023-03-21T06:02:24.540Z,53.40
2023-03-21T06:04:56.181Z,47.10
2023-03-21T06:07:24.581Z,50.90
2023-03-21T06:09:54.179Z,44.80
2023-03-21T06:12:24.202Z,57.40
2023-03-21T06:15:05.035Z,46.10
2023-03-21T06:17:38.396Z,45.60
2023-03-21T06:20:11.842Z,52.80
2023-03-21T06:22:51.434Z,49.80
2023-03-21T06:25:20.446Z,42.00
2023-03-21T06:27:49.360Z,43.10
2023-03-21T06:30:18.315Z,44.10
2023-03-21T06:33:00.815Z,43.30
2023-03-21T06:35:42.288Z,50.30
2023-03-21T06:38:31.253Z,38.70
2023-03-21T06:41:18.967Z,42.30
2023-03-21T06:43:57.239Z,37.50
2023-03-21T06:46:25.869Z,44.60
2023-03-21T06:48:55.363Z,42.70
2023-03-21T06:51:24.006Z,43.60
2023-03-21T06:54:11.466Z,39.80
2023-03-21T06:56:58.944Z,36.70
2023-03-21T06:59:31.136Z,50.40
2023-03-21T07:02:03.093Z,43.10
2023-03-21T07:04:31.925Z,42.00
2023-03-21T07:06:59.155Z,42.70
2023-03-21T07:09:35.010Z,39.70
2023-03-21T07:12:05.845Z,35.40
2023-03-21T07:14:44.633Z,31.70
2023-03-21T07:17:14.026Z,36.10
2023-03-21T07:19:44.753Z,31.50
2023-03-21T07:22:13.579Z,36.30
2023-03-21T07:24:41.719Z,29.10
2023-03-21T07:28:26.021Z,42.60
2023-03-21T07:30:59.180Z,35.30
2023-03-21T07:33:27.132Z,35.40
2023-03-21T07:36:00.872Z,30.20
2023-03-21T07:38:31.071Z,35.90
2023-03-21T07:41:00.399Z,36.80
2023-03-21T07:43:32.354Z,189.70
2023-03-21T07:46:00.272Z,287.70
2023-03-21T07:48:28.246Z,194.40
2023-03-21T07:50:55.684Z,153.40
2023-03-21T07:53:22.616Z,66.90
2023-03-21T07:55:51.613Z,28.70
2023-03-21T07:58:18.969Z,41.90
2023-03-21T08:00:47.505Z,32.00
2023-03-21T08:03:15.544Z,26.10
2023-03-21T08:05:44.492Z,25.40
2023-03-21T08:08:13.324Z,43.40
2023-03-21T08:10:43.117Z,48.20
2023-03-21T08:13:10.064Z,24.80
2023-03-21T08:15:39.331Z,28.60
2023-03-21T08:18:06.778Z,23.00
2023-03-21T08:20:35.412Z,42.60
2023-03-21T08:23:02.997Z,21.70
2023-03-21T08:25:35.184Z,23.40
2023-03-21T08:28:23.832Z,25.10
2023-03-21T08:31:12.951Z,23.20
2023-03-21T08:33:40.586Z,23.30
2023-03-21T08:36:10.710Z,27.40
2023-03-21T08:38:38.087Z,27.30
2023-03-21T08:41:06.476Z,32.30
2023-03-21T08:43:34.120Z,23.70
2023-03-21T08:46:03.728Z,25.60
2023-03-21T08:48:31.022Z,27.10
2023-03-21T08:51:03.417Z,28.60
2023-03-21T08:53:42.030Z,26.40
2023-03-21T08:56:11.650Z,25.90
2023-03-21T08:58:38.935Z,24.10
2023-03-21T09:01:11.120Z,25.40
2023-03-21T09:03:39.474Z,25.60
2023-03-21T09:06:10.538Z,27.20
2023-03-21T09:08:39.112Z,29.30
2023-03-21T09:11:08.310Z,26.30
2023-03-21T09:13:37.358Z,28.50
2023-03-21T09:16:07.849Z,26.90
2023-03-21T09:18:47.105Z,26.90
2023-03-21T09:21:17.029Z,28.30
2023-03-21T09:23:45.761Z,29.20
2023-03-21T09:26:13.873Z,30.20
2023-03-21T09:28:43.671Z,29.50
2023-03-21T09:31:10.800Z,27.20
2023-03-21T09:33:44.296Z,31.80
2023-03-21T09:36:25.587Z,32.00
2023-03-21T09:38:57.347Z,29.80
2023-03-21T09:42:03.145Z,33.30
2023-03-21T09:44:37.943Z,30.00
2023-03-21T09:47:37.462Z,30.20
2023-03-21T09:50:21.809Z,29.30
2023-03-21T09:53:17.505Z,28.00
2023-03-21T09:55:48.147Z,30.10
2023-03-21T09:58:26.441Z,29.60
2023-03-21T10:01:04.678Z,28.00
2023-03-21T10:03:37.244Z,28.90
2023-03-21T10:06:30.679Z,27.70
2023-03-21T10:09:24.060Z,32.00
2023-03-21T10:12:15.561Z,28.00
2023-03-21T10:15:06.462Z,30.20
2023-03-21T10:17:53.742Z,27.00
2023-03-21T10:20:42.772Z,32.90
2023-03-21T10:23:16.507Z,28.00
2023-03-21T10:25:53.075Z,32.40
2023-03-21T10:28:27.196Z,31.30
2023-03-21T10:31:00.751Z,30.10
2023-03-21T10:33:33.496Z,30.20
2023-03-21T10:36:08.644Z,30.30
2023-03-21T10:38:43.627Z,29.60
2023-03-21T10:41:12.606Z,32.10
2023-03-21T10:43:44.742Z,29.20
2023-03-21T10:46:18.673Z,32.10
2023-03-21T10:48:54.259Z,29.90
2023-03-21T10:51:33.214Z,30.20
2023-03-21T10:54:09.547Z,28.40
2023-03-21T10:56:43.260Z,26.80
2023-03-21T10:59:22.979Z,28.60
2023-03-21T11:01:55.688Z,26.00
2023-03-21T11:04:28.833Z,31.10
2023-03-21T11:07:00.864Z,29.30
2023-03-21T11:10:19.927Z,29.60
2023-03-21T11:12:57.495Z,28.40
2023-03-21T11:15:56.020Z,31.50
2023-03-21T11:18:31.704Z,31.70
2023-03-21T11:22:26.992Z,24.80
2023-03-21T11:25:04.540Z,28.80
2023-03-21T11:27:32.678Z,27.70
2023-03-21T11:30:05.445Z,31.30
2023-03-21T11:32:39.463Z,36.70
2023-03-21T11:35:20.804Z,25.40
2023-03-21T11:38:23.379Z,23.50
2023-03-21T11:40:59.235Z,24.60
2023-03-21T11:43:40.852Z,81.70
2023-03-21T11:46:13.952Z,20.90
2023-03-21T11:48:45.399Z,23.00
2023-03-21T11:51:29.908Z,40.90
2023-03-21T11:54:33.769Z,18.70
2023-03-21T11:57:05.924Z,17.90
2023-03-21T12:00:20.437Z,23.60
2023-03-21T12:03:28.943Z,12.40
2023-03-21T12:06:03.443Z,21.70
2023-03-21T12:09:18.198Z,23.90
2023-03-21T12:11:58.959Z,21.50
2023-03-21T12:14:36.020Z,18.20
2023-03-21T12:17:24.940Z,22.20
2023-03-21T12:19:54.918Z,23.70
2023-03-21T12:22:21.669Z,20.20
2023-03-21T12:24:58.229Z,20.10
2023-03-21T12:27:45.068Z,18.90
2023-03-21T12:30:42.490Z,27.50
2023-03-21T12:33:51.096Z,17.30
2023-03-21T12:36:39.400Z,22.60
2023-03-21T12:39:29.220Z,16.90
2023-03-21T12:42:11.078Z,21.00
2023-03-21T12:44:44.007Z,34.80
2023-03-21T12:47:18.373Z,25.10
2023-03-21T12:49:55.396Z,20.20
2023-03-21T12:52:37.601Z,34.50
2023-03-21T12:55:21.187Z,18.80
2023-03-21T13:00:31.557Z,17.90
2023-03-21T13:03:03.148Z,20.20
2023-03-21T13:05:32.253Z,23.10
2023-03-21T13:08:14.365Z,19.30
2023-03-21T13:10:44.789Z,22.20
2023-03-21T13:13:14.500Z,19.50
2023-03-21T13:15:58.113Z,30.40
2023-03-21T13:18:49.546Z,21.00
2023-03-21T13:21:29.839Z,28.00
2023-03-21T13:24:00.445Z,21.70
2023-03-21T13:26:40.182Z,20.40
2023-03-21T13:29:27.267Z,22.70
2023-03-21T13:31:58.902Z,20.90
2023-03-21T13:34:26.484Z,20.60
2023-03-21T13:36:57.333Z,19.00
2023-03-21T13:39:27.359Z,19.80
2023-03-21T13:41:55.431Z,24.50
2023-03-21T13:44:35.751Z,17.30
2023-03-21T13:47:05.632Z,14.00
2023-03-21T13:49:37.529Z,15.20
2023-03-21T13:52:10.542Z,13.90
2023-03-21T13:54:51.392Z,21.10
2023-03-21T13:57:43.043Z,16.60
2023-03-21T14:00:29.743Z,11.90
2023-03-21T14:03:07.442Z,16.20
2023-03-21T14:05:36.544Z,83.20
2023-03-21T14:08:24.853Z,16.60
2023-03-21T14:10:59.301Z,24.40
2023-03-21T14:13:28.433Z,20.50
2023-03-21T14:16:01.601Z,18.00
2023-03-21T14:18:52.274Z,18.20
2023-03-21T14:21:35.917Z,13.60
2023-03-21T14:24:06.141Z,20.60
2023-03-21T14:26:37.435Z,12.20
2023-03-21T14:29:09.606Z,24.70
2023-03-21T14:31:46.255Z,23.40
2023-03-21T14:34:16.291Z,13.40
2023-03-21T14:36:51.732Z,10.50
2023-03-21T14:39:30.976Z,11.30
2023-03-21T14:42:07.524Z,12.50
2023-03-21T14:44:53.425Z,11.60
2023-03-21T14:47:31.568Z,12.40
2023-03-21T14:50:00.746Z,11.70
2023-03-21T14:52:33.302Z,12.10
2023-03-21T14:55:02.544Z,11.70
2023-03-21T14:57:32.085Z,11.40
2023-03-21T15:00:06.048Z,12.30
2023-03-21T15:02:36.340Z,14.50
2023-03-21T15:05:17.967Z,14.70
2023-03-21T15:07:53.713Z,13.10
2023-03-21T15:10:21.096Z,16.20
2023-03-21T15:12:52.346Z,11.00
2023-03-21T15:15:20.643Z,13.60
2023-03-21T15:17:48.325Z,12.10
2023-03-21T15:20:16.398Z,12.20
2023-03-21T15:22:51.402Z,12.30
2023-03-21T15:25:26.030Z,16.00
2023-03-21T15:27:55.177Z,11.60
2023-03-21T15:30:25.972Z,16.70
2023-03-21T15:32:54.192Z,14.80
2023-03-21T15:35:26.686Z,13.70
2023-03-21T15:37:56.176Z,16.50
2023-03-21T15:40:26.933Z,11.40
2023-03-21T15:43:17.163Z,13.50
2023-03-21T15:45:51.490Z,17.70
2023-03-21T15:48:26.001Z,17.80
2023-03-21T15:51:07.557Z,43.20
2023-03-21T15:53:36.840Z,36.30
2023-03-21T15:56:05.614Z,28.80
2023-03-21T15:58:40.863Z,42.90
2023-03-21T16:01:16.784Z,31.40
2023-03-21T16:03:47.485Z,22.20
2023-03-21T16:06:14.252Z,37.50
2023-03-21T16:08:51.259Z,51.70
2023-03-21T16:11:22.880Z,60.40
2023-03-21T16:13:51.072Z,54.20
2023-03-21T16:16:25.905Z,46.20
2023-03-21T16:18:53.905Z,57.70
2023-03-21T16:21:23.826Z,58.90
2023-03-21T16:23:50.651Z,50.20
2023-03-21T16:26:21.042Z,63.10
2023-03-21T16:28:48.558Z,41.40
2023-03-21T16:31:18.233Z,54.00
2023-03-21T16:33:45.931Z,77.00
2023-03-21T16:36:21.402Z,118.50
2023-03-21T16:38:52.145Z,141.70
2023-03-21T16:41:19.954Z,97.00
2023-03-21T16:43:46.930Z,69.80
2023-03-21T16:46:16.164Z,61.70
2023-03-21T16:48:46.192Z,55.70
2023-03-21T16:51:14.847Z,49.00
2023-03-21T16:53:42.582Z,34.10
2023-03-21T16:56:14.406Z,32.80
2023-03-21T16:58:41.153Z,39.50
2023-03-21T17:01:13.303Z,48.20
2023-03-21T17:03:40.481Z,35.30
2023-03-21T17:06:13.345Z,34.20
2023-03-21T17:08:40.069Z,32.60
2023-03-21T17:11:11.504Z,42.30
2023-03-21T17:13:38.826Z,60.10
2023-03-21T17:16:06.110Z,52.50
2023-03-21T17:18:33.034Z,22.80
2023-03-21T17:21:00.278Z,42.10
2023-03-21T17:23:27.170Z,65.50
2023-03-21T17:25:54.995Z,95.70
2023-03-21T17:28:21.791Z,102.10
2023-03-21T17:30:48.584Z,95.40
2023-03-21T17:33:15.342Z,73.30
2023-03-21T17:35:42.142Z,70.80
2023-03-21T17:38:15.168Z,68.90
2023-03-21T17:40:42.798Z,55.70
2023-03-21T17:43:19.364Z,64.60
2023-03-21T17:45:46.304Z,49.40
2023-03-21T17:48:13.183Z,55.30
2023-03-21T17:50:40.627Z,51.70
2023-03-21T17:53:07.716Z,44.50
2023-03-21T17:55:35.271Z,47.50
2023-03-21T17:58:03.697Z,48.60
2023-03-21T18:00:32.084Z,58.20
2023-03-21T18:02:59.260Z,59.40
2023-03-21T18:05:27.029Z,48.00
2023-03-21T18:08:11.902Z,37.00
2023-03-21T18:10:40.248Z,35.40
2023-03-21T18:13:07.890Z,36.60
2023-03-21T18:15:37.547Z,40.20
2023-03-21T18:18:05.416Z,41.90
2023-03-21T18:20:50.796Z,62.50
2023-03-21T18:23:18.873Z,71.80
2023-03-21T18:25:45.634Z,106.30
2023-03-21T18:28:13.158Z,84.20
2023-03-21T18:31:00.969Z,90.40
2023-03-21T18:33:29.476Z,91.20
2023-03-21T18:35:59.963Z,230.50
2023-03-21T18:38:28.086Z,64.60
2023-03-21T18:40:55.437Z,64.40
2023-03-21T18:46:09.376Z,114.70
2023-03-21T18:48:36.473Z,180.10
2023-03-21T18:51:04.162Z,97.70
2023-03-21T18:53:31.560Z,64.40
2023-03-21T18:55:58.699Z,44.90
2023-03-21T18:58:25.477Z,64.70
2023-03-21T19:00:53.041Z,92.50
2023-03-21T19:03:34.190Z,82.50
2023-03-21T19:06:05.162Z,82.80
2023-03-21T19:08:34.136Z,51.60
2023-03-21T19:11:05.982Z,28.10
2023-03-21T19:13:34.352Z,22.90
2023-03-21T19:16:02.624Z,22.40
2023-03-21T19:18:50.321Z,22.20
2023-03-21T19:21:18.806Z,20.50
2023-03-21T19:24:20.994Z,21.90
2023-03-21T19:26:32.829Z,23.40
2023-03-21T19:28:59.870Z,24.40
2023-03-21T19:31:26.840Z,21.70
2023-03-21T19:33:53.898Z,16.80
2023-03-21T19:36:23.420Z,17.70
2023-03-21T19:38:51.316Z,24.60
2023-03-21T19:41:20.044Z,22.30
2023-03-21T19:43:54.336Z,23.50
2023-03-21T19:46:24.209Z,25.40
2023-03-21T19:48:51.065Z,18.20
2023-03-21T19:51:28.249Z,23.00
2023-03-21T19:53:56.044Z,57.70
2023-03-21T19:56:26.464Z,111.60
2023-03-21T19:58:56.950Z,137.00
2023-03-21T20:01:24.851Z,67.70
2023-03-21T20:03:52.046Z,44.20
2023-03-21T20:06:19.584Z,40.60
2023-03-21T20:09:34.133Z,30.10
2023-03-21T20:11:33.692Z,41.00
2023-03-21T20:14:02.531Z,44.70
2023-03-21T20:16:34.662Z,49.30
2023-03-21T20:19:08.432Z,29.00
2023-03-21T20:21:46.542Z,22.20
2023-03-21T20:24:17.152Z,19.70
2023-03-21T20:26:45.271Z,21.60
2023-03-21T20:30:00.208Z,21.00
2023-03-21T20:31:59.217Z,20.20
2023-03-21T20:34:27.262Z,21.80
2023-03-21T20:36:54.895Z,21.30
2023-03-21T20:39:22.224Z,22.20
2023-03-21T20:41:49.560Z,22.20
2023-03-21T20:44:48.174Z,25.80
2023-03-21T20:47:05.066Z,23.20
2023-03-21T20:49:31.883Z,23.80
2023-03-21T20:54:47.110Z,19.80
2023-03-21T20:57:13.872Z,19.90
2023-03-21T20:59:43.287Z,23.20
2023-03-21T21:02:10.779Z,19.50
2023-03-21T21:04:52.867Z,17.20
2023-03-21T21:07:27.460Z,18.40
2023-03-21T21:09:54.311Z,21.20
2023-03-21T21:12:26.812Z,20.90
2023-03-21T21:14:56.955Z,22.10
2023-03-21T21:20:20.113Z,26.30
2023-03-21T21:22:59.012Z,25.20
2023-03-21T21:25:30.211Z,23.20
2023-03-21T21:27:57.179Z,27.00
2023-03-21T21:30:24.405Z,19.20
2023-03-21T21:32:51.235Z,18.60
2023-03-21T21:35:20.036Z,22.10
2023-03-21T21:37:47.066Z,25.00
2023-03-21T21:40:16.230Z,23.90
2023-03-21T21:42:43.979Z,18.20
2023-03-21T21:45:12.463Z,21.60
2023-03-21T21:47:39.511Z,17.50
2023-03-21T21:50:07.367Z,21.20
2023-03-21T21:52:34.484Z,20.50
2023-03-21T21:55:01.627Z,21.30
2023-03-21T21:57:33.476Z,21.00
2023-03-21T22:00:06.219Z,22.20
2023-03-21T22:02:40.224Z,20.70
2023-03-21T22:05:08.371Z,21.50
2023-03-21T22:07:35.890Z,18.00
2023-03-21T22:10:03.037Z,20.30
2023-03-21T22:12:29.873Z,21.00
2023-03-21T22:14:56.771Z,21.40
2023-03-21T22:17:23.594Z,22.80
2023-03-21T22:20:04.661Z,21.80
2023-03-21T22:22:33.728Z,23.70
2023-03-21T22:25:00.477Z,25.30
2023-03-21T22:27:27.504Z,22.50
2023-03-21T22:29:54.388Z,21.60
2023-03-21T22:32:21.140Z,23.50
2023-03-21T22:34:47.924Z,21.00
2023-03-21T22:37:15.021Z,21.70
2023-03-21T22:39:42.207Z,22.40
2023-03-21T22:42:08.969Z,23.50
2023-03-21T22:44:35.880Z,20.20
2023-03-21T22:47:10.691Z,20.30
2023-03-21T22:49:38.963Z,20.90
2023-03-21T22:52:06.309Z,27.00
2023-03-21T22:54:33.425Z,26.70
2023-03-21T22:57:00.247Z,26.70
2023-03-21T22:59:27.632Z,25.90
2023-03-21T23:01:54.510Z,21.80
2023-03-21T23:04:21.392Z,25.20
2023-03-21T23:06:48.717Z,25.80
2023-03-21T23:09:17.077Z,26.30
2023-03-21T23:11:45.800Z,22.50
2023-03-21T23:14:14.705Z,24.90
2023-03-21T23:16:42.432Z,24.80
2023-03-21T23:19:10.010Z,24.10
2023-03-21T23:21:37.844Z,22.60
2023-03-21T23:24:06.098Z,26.20
2023-03-21T23:26:35.900Z,23.10
2023-03-21T23:29:05.750Z,25.20
2023-03-21T23:31:32.615Z,26.30
2023-03-21T23:34:00.531Z,23.40
2023-03-21T23:36:27.877Z,26.50
2023-03-21T23:38:54.732Z,26.80
2023-03-21T23:41:23.275Z,23.40
2023-03-21T23:43:50.599Z,24.80
2023-03-21T23:46:18.414Z,27.50
2023-03-21T23:48:45.987Z,29.30
2023-03-21T23:51:15.839Z,23.60
2023-03-21T23:53:43.889Z,21.50
2023-03-21T23:56:12.133Z,22.70
2023-03-21T23:58:38.926Z,26.60
